sensor_id;sensor_type;location;lat;lon;timestamp;P1;durP1;ratioP1;P2;durP2;ratioP2
51174;SDS011;37240;50.104;20.010;2024-02-21T00:00:36;9.70;;;3.63;;
51174;SDS011;37240;50.104;20.010;2024-02-21T00:05:37;6.30;;;3.30;;
51174;SDS011;37240;50.104;20.010;2024-02-21T00:10:37;10.32;;;3.65;;
51174;SDS011;37240;50.104;20.010;2024-02-21T00:15:38;8.50;;;3.63;;
51174;SDS011;37240;50.104;20.010;2024-02-21T00:20:38;10.30;;;3.53;;
51174;SDS011;37240;50.104;20.010;2024-02-21T00:25:39;10.00;;;3.47;;
51174;SDS011;37240;50.104;20.010;2024-02-21T00:30:39;6.70;;;2.63;;
51174;SDS011;37240;50.104;20.010;2024-02-21T00:35:40;8.68;;;3.53;;
51174;SDS011;37240;50.104;20.010;2024-02-21T00:40:40;8.43;;;2.42;;
51174;SDS011;37240;50.104;20.010;2024-02-21T00:45:41;4.72;;;2.97;;
51174;SDS011;37240;50.104;20.010;2024-02-21T00:50:41;7.45;;;3.35;;
51174;SDS011;37240;50.104;20.010;2024-02-21T00:55:42;10.63;;;3.45;;
51174;SDS011;37240;50.104;20.010;2024-02-21T01:00:42;5.82;;;3.05;;
51174;SDS011;37240;50.104;20.010;2024-02-21T01:05:43;10.75;;;3.75;;
51174;SDS011;37240;50.104;20.010;2024-02-21T01:10:44;12.77;;;4.20;;
51174;SDS011;37240;50.104;20.010;2024-02-21T01:15:44;8.73;;;4.25;;
51174;SDS011;37240;50.104;20.010;2024-02-21T01:20:45;14.93;;;5.93;;
51174;SDS011;37240;50.104;20.010;2024-02-21T01:25:45;18.30;;;6.25;;
51174;SDS011;37240;50.104;20.010;2024-02-21T01:30:46;21.70;;;7.03;;
51174;SDS011;37240;50.104;20.010;2024-02-21T01:35:46;16.33;;;7.10;;
51174;SDS011;37240;50.104;20.010;2024-02-21T01:40:47;17.42;;;6.47;;
51174;SDS011;37240;50.104;20.010;2024-02-21T01:45:52;28.20;;;8.13;;
51174;SDS011;37240;50.104;20.010;2024-02-21T01:50:54;16.85;;;7.60;;
51174;SDS011;37240;50.104;20.010;2024-02-21T01:55:55;26.33;;;8.38;;
51174;SDS011;37240;50.104;20.010;2024-02-21T02:00:56;20.92;;;8.77;;
51174;SDS011;37240;50.104;20.010;2024-02-21T02:05:57;25.00;;;8.75;;
51174;SDS011;37240;50.104;20.010;2024-02-21T02:10:57;30.38;;;11.23;;
51174;SDS011;37240;50.104;20.010;2024-02-21T02:15:59;28.50;;;10.32;;
51174;SDS011;37240;50.104;20.010;2024-02-21T02:20:59;28.05;;;9.35;;
51174;SDS011;37240;50.104;20.010;2024-02-21T02:26:00;25.60;;;9.30;;
51174;SDS011;37240;50.104;20.010;2024-02-21T02:31:00;29.60;;;8.73;;
51174;SDS011;37240;50.104;20.010;2024-02-21T02:36:01;35.80;;;9.60;;
51174;SDS011;37240;50.104;20.010;2024-02-21T02:41:01;22.13;;;8.23;;
51174;SDS011;37240;50.104;20.010;2024-02-21T02:46:02;28.83;;;10.30;;
51174;SDS011;37240;50.104;20.010;2024-02-21T02:51:03;27.38;;;8.13;;
51174;SDS011;37240;50.104;20.010;2024-02-21T02:56:04;25.55;;;7.78;;
51174;SDS011;37240;50.104;20.010;2024-02-21T03:01:06;26.17;;;7.85;;
51174;SDS011;37240;50.104;20.010;2024-02-21T03:06:07;34.55;;;10.35;;
51174;SDS011;37240;50.104;20.010;2024-02-21T03:11:07;26.98;;;9.23;;
51174;SDS011;37240;50.104;20.010;2024-02-21T03:16:08;27.88;;;9.07;;
51174;SDS011;37240;50.104;20.010;2024-02-21T03:21:08;25.42;;;7.97;;
51174;SDS011;37240;50.104;20.010;2024-02-21T03:26:09;29.25;;;8.25;;
51174;SDS011;37240;50.104;20.010;2024-02-21T03:31:10;25.00;;;7.75;;
51174;SDS011;37240;50.104;20.010;2024-02-21T03:36:14;30.15;;;7.95;;
51174;SDS011;37240;50.104;20.010;2024-02-21T03:41:15;31.67;;;9.60;;
51174;SDS011;37240;50.104;20.010;2024-02-21T03:46:15;30.58;;;8.30;;
51174;SDS011;37240;50.104;20.010;2024-02-21T03:51:16;23.15;;;8.25;;
51174;SDS011;37240;50.104;20.010;2024-02-21T03:56:16;31.92;;;8.23;;
51174;SDS011;37240;50.104;20.010;2024-02-21T04:01:17;27.70;;;7.75;;
51174;SDS011;37240;50.104;20.010;2024-02-21T04:06:17;33.53;;;9.93;;
51174;SDS011;37240;50.104;20.010;2024-02-21T04:11:18;90.00;;;28.73;;
51174;SDS011;37240;50.104;20.010;2024-02-21T04:16:18;51.47;;;11.80;;
51174;SDS011;37240;50.104;20.010;2024-02-21T04:21:19;33.20;;;10.57;;
51174;SDS011;37240;50.104;20.010;2024-02-21T04:26:20;27.75;;;8.55;;
51174;SDS011;37240;50.104;20.010;2024-02-21T04:31:20;30.17;;;9.63;;
51174;SDS011;37240;50.104;20.010;2024-02-21T04:36:21;39.85;;;10.95;;
51174;SDS011;37240;50.104;20.010;2024-02-21T04:41:21;37.05;;;10.23;;
51174;SDS011;37240;50.104;20.010;2024-02-21T04:46:22;48.75;;;16.58;;
51174;SDS011;37240;50.104;20.010;2024-02-21T04:51:22;35.30;;;13.27;;
51174;SDS011;37240;50.104;20.010;2024-02-21T04:56:23;30.30;;;11.18;;
51174;SDS011;37240;50.104;20.010;2024-02-21T05:01:24;38.40;;;10.00;;
51174;SDS011;37240;50.104;20.010;2024-02-21T05:06:24;31.50;;;8.50;;
51174;SDS011;37240;50.104;20.010;2024-02-21T05:11:25;27.42;;;10.00;;
51174;SDS011;37240;50.104;20.010;2024-02-21T05:16:25;20.48;;;9.43;;
51174;SDS011;37240;50.104;20.010;2024-02-21T05:21:26;35.55;;;10.52;;
51174;SDS011;37240;50.104;20.010;2024-02-21T05:26:28;29.98;;;10.00;;
51174;SDS011;37240;50.104;20.010;2024-02-21T05:31:42;31.52;;;9.27;;
51174;SDS011;37240;50.104;20.010;2024-02-21T05:37:01;26.70;;;8.25;;
51174;SDS011;37240;50.104;20.010;2024-02-21T05:42:02;28.80;;;8.43;;
51174;SDS011;37240;50.104;20.010;2024-02-21T05:47:02;20.38;;;7.70;;
51174;SDS011;37240;50.104;20.010;2024-02-21T05:52:03;27.80;;;9.30;;
51174;SDS011;37240;50.104;20.010;2024-02-21T05:57:04;23.02;;;8.43;;
51174;SDS011;37240;50.104;20.010;2024-02-21T06:02:05;22.20;;;8.55;;
51174;SDS011;37240;50.104;20.010;2024-02-21T06:07:05;30.98;;;9.57;;
51174;SDS011;37240;50.104;20.010;2024-02-21T06:12:06;25.90;;;8.38;;
51174;SDS011;37240;50.104;20.010;2024-02-21T06:17:06;20.70;;;7.93;;
51174;SDS011;37240;50.104;20.010;2024-02-21T06:22:07;37.70;;;9.15;;
51174;SDS011;37240;50.104;20.010;2024-02-21T06:27:08;21.90;;;7.00;;
51174;SDS011;37240;50.104;20.010;2024-02-21T06:32:08;25.65;;;8.88;;
51174;SDS011;37240;50.104;20.010;2024-02-21T06:37:09;27.13;;;8.98;;
51174;SDS011;37240;50.104;20.010;2024-02-21T06:42:09;17.98;;;6.93;;
51174;SDS011;37240;50.104;20.010;2024-02-21T06:47:10;20.65;;;7.03;;
51174;SDS011;37240;50.104;20.010;2024-02-21T06:52:10;32.83;;;8.63;;
51174;SDS011;37240;50.104;20.010;2024-02-21T06:57:11;23.10;;;7.95;;
51174;SDS011;37240;50.104;20.010;2024-02-21T07:02:11;18.42;;;6.80;;
51174;SDS011;37240;50.104;20.010;2024-02-21T07:07:12;24.90;;;6.10;;
51174;SDS011;37240;50.104;20.010;2024-02-21T07:12:13;19.20;;;7.20;;
51174;SDS011;37240;50.104;20.010;2024-02-21T07:17:13;15.98;;;5.93;;
51174;SDS011;37240;50.104;20.010;2024-02-21T07:22:14;22.48;;;6.03;;
51174;SDS011;37240;50.104;20.010;2024-02-21T07:27:17;15.65;;;5.65;;
51174;SDS011;37240;50.104;20.010;2024-02-21T07:32:18;23.00;;;6.03;;
51174;SDS011;37240;50.104;20.010;2024-02-21T07:37:18;21.65;;;6.85;;
51174;SDS011;37240;50.104;20.010;2024-02-21T07:42:19;16.02;;;5.65;;
51174;SDS011;37240;50.104;20.010;2024-02-21T07:47:19;14.65;;;5.85;;
51174;SDS011;37240;50.104;20.010;2024-02-21T07:52:20;15.50;;;5.13;;
51174;SDS011;37240;50.104;20.010;2024-02-21T07:57:20;22.15;;;5.10;;
51174;SDS011;37240;50.104;20.010;2024-02-21T08:02:21;17.05;;;4.95;;
51174;SDS011;37240;50.104;20.010;2024-02-21T08:07:21;12.05;;;3.97;;
51174;SDS011;37240;50.104;20.010;2024-02-21T08:12:22;20.00;;;5.25;;
51174;SDS011;37240;50.104;20.010;2024-02-21T08:17:22;16.52;;;4.85;;
51174;SDS011;37240;50.104;20.010;2024-02-21T08:22:23;25.30;;;4.88;;
51174;SDS011;37240;50.104;20.010;2024-02-21T08:27:24;21.33;;;4.88;;
51174;SDS011;37240;50.104;20.010;2024-02-21T08:32:24;12.18;;;4.03;;
51174;SDS011;37240;50.104;20.010;2024-02-21T08:37:26;15.05;;;5.60;;
51174;SDS011;37240;50.104;20.010;2024-02-21T08:42:27;22.10;;;5.18;;
51174;SDS011;37240;50.104;20.010;2024-02-21T08:47:28;10.18;;;4.20;;
51174;SDS011;37240;50.104;20.010;2024-02-21T08:52:28;16.40;;;4.93;;
51174;SDS011;37240;50.104;20.010;2024-02-21T08:57:29;14.45;;;5.53;;
51174;SDS011;37240;50.104;20.010;2024-02-21T09:02:29;20.23;;;5.90;;
51174;SDS011;37240;50.104;20.010;2024-02-21T09:07:30;22.88;;;6.32;;
51174;SDS011;37240;50.104;20.010;2024-02-21T09:12:30;19.83;;;5.63;;
51174;SDS011;37240;50.104;20.010;2024-02-21T09:17:32;18.45;;;5.50;;
51174;SDS011;37240;50.104;20.010;2024-02-21T09:22:33;16.10;;;5.38;;
51174;SDS011;37240;50.104;20.010;2024-02-21T09:27:33;12.73;;;5.13;;
51174;SDS011;37240;50.104;20.010;2024-02-21T09:32:34;14.75;;;5.15;;
51174;SDS011;37240;50.104;20.010;2024-02-21T09:37:34;17.17;;;4.57;;
51174;SDS011;37240;50.104;20.010;2024-02-21T09:42:40;16.27;;;4.22;;
51174;SDS011;37240;50.104;20.010;2024-02-21T09:47:51;11.67;;;4.03;;
51174;SDS011;37240;50.104;20.010;2024-02-21T09:52:56;25.73;;;4.43;;
51174;SDS011;37240;50.104;20.010;2024-02-21T09:57:57;12.88;;;3.78;;
51174;SDS011;37240;50.104;20.010;2024-02-21T10:02:59;11.30;;;3.75;;
51174;SDS011;37240;50.104;20.010;2024-02-21T10:07:59;19.42;;;3.85;;
51174;SDS011;37240;50.104;20.010;2024-02-21T10:13:00;16.80;;;4.22;;
51174;SDS011;37240;50.104;20.010;2024-02-21T10:18:00;13.57;;;4.40;;
51174;SDS011;37240;50.104;20.010;2024-02-21T10:23:05;12.85;;;3.63;;
51174;SDS011;37240;50.104;20.010;2024-02-21T10:28:05;13.75;;;3.85;;
51174;SDS011;37240;50.104;20.010;2024-02-21T10:33:06;15.52;;;4.13;;
51174;SDS011;37240;50.104;20.010;2024-02-21T10:38:06;16.35;;;3.67;;
51174;SDS011;37240;50.104;20.010;2024-02-21T10:43:09;7.68;;;2.65;;
51174;SDS011;37240;50.104;20.010;2024-02-21T10:48:14;9.38;;;3.45;;
51174;SDS011;37240;50.104;20.010;2024-02-21T10:53:28;15.73;;;3.28;;
51174;SDS011;37240;50.104;20.010;2024-02-21T10:58:39;13.63;;;3.60;;
51174;SDS011;37240;50.104;20.010;2024-02-21T11:03:41;10.38;;;3.15;;
51174;SDS011;37240;50.104;20.010;2024-02-21T11:08:44;15.20;;;4.00;;
51174;SDS011;37240;50.104;20.010;2024-02-21T11:13:45;13.23;;;4.70;;
51174;SDS011;37240;50.104;20.010;2024-02-21T11:18:46;12.18;;;3.83;;
51174;SDS011;37240;50.104;20.010;2024-02-21T11:23:54;9.90;;;3.85;;
51174;SDS011;37240;50.104;20.010;2024-02-21T11:28:56;12.70;;;3.17;;
51174;SDS011;37240;50.104;20.010;2024-02-21T11:33:57;10.27;;;3.50;;
51174;SDS011;37240;50.104;20.010;2024-02-21T11:39:03;12.75;;;4.10;;
51174;SDS011;37240;50.104;20.010;2024-02-21T11:44:04;10.85;;;3.15;;
51174;SDS011;37240;50.104;20.010;2024-02-21T11:49:05;11.65;;;3.67;;
51174;SDS011;37240;50.104;20.010;2024-02-21T11:54:06;14.30;;;3.25;;
51174;SDS011;37240;50.104;20.010;2024-02-21T11:59:08;15.77;;;4.32;;
51174;SDS011;37240;50.104;20.010;2024-02-21T12:04:09;12.40;;;4.30;;
51174;SDS011;37240;50.104;20.010;2024-02-21T12:09:13;10.57;;;3.83;;
51174;SDS011;37240;50.104;20.010;2024-02-21T12:14:17;20.70;;;5.88;;
51174;SDS011;37240;50.104;20.010;2024-02-21T12:19:17;15.27;;;4.72;;
51174;SDS011;37240;50.104;20.010;2024-02-21T12:24:22;18.73;;;5.40;;
51174;SDS011;37240;50.104;20.010;2024-02-21T12:29:25;11.63;;;3.90;;
51174;SDS011;37240;50.104;20.010;2024-02-21T12:34:26;18.50;;;3.85;;
51174;SDS011;37240;50.104;20.010;2024-02-21T12:39:26;14.68;;;3.50;;
51174;SDS011;37240;50.104;20.010;2024-02-21T12:44:27;11.15;;;3.88;;
51174;SDS011;37240;50.104;20.010;2024-02-21T12:49:27;19.55;;;3.85;;
51174;SDS011;37240;50.104;20.010;2024-02-21T12:54:28;20.42;;;4.85;;
51174;SDS011;37240;50.104;20.010;2024-02-21T12:59:29;9.73;;;3.35;;
51174;SDS011;37240;50.104;20.010;2024-02-21T13:04:30;9.55;;;3.30;;
51174;SDS011;37240;50.104;20.010;2024-02-21T13:09:30;16.23;;;4.53;;
51174;SDS011;37240;50.104;20.010;2024-02-21T13:14:31;16.80;;;4.40;;
51174;SDS011;37240;50.104;20.010;2024-02-21T13:19:31;14.05;;;4.15;;
51174;SDS011;37240;50.104;20.010;2024-02-21T13:24:32;10.20;;;3.53;;
51174;SDS011;37240;50.104;20.010;2024-02-21T13:29:32;12.98;;;3.80;;
51174;SDS011;37240;50.104;20.010;2024-02-21T13:34:33;10.50;;;2.90;;
51174;SDS011;37240;50.104;20.010;2024-02-21T13:39:33;13.65;;;4.00;;
51174;SDS011;37240;50.104;20.010;2024-02-21T13:44:34;12.55;;;4.05;;
51174;SDS011;37240;50.104;20.010;2024-02-21T13:49:34;14.90;;;4.57;;
51174;SDS011;37240;50.104;20.010;2024-02-21T13:54:35;13.98;;;4.55;;
51174;SDS011;37240;50.104;20.010;2024-02-21T13:59:35;22.45;;;4.97;;
51174;SDS011;37240;50.104;20.010;2024-02-21T14:04:36;11.05;;;4.05;;
51174;SDS011;37240;50.104;20.010;2024-02-21T14:09:36;18.13;;;4.28;;
51174;SDS011;37240;50.104;20.010;2024-02-21T14:14:37;17.30;;;3.63;;
51174;SDS011;37240;50.104;20.010;2024-02-21T14:19:37;13.70;;;3.72;;
51174;SDS011;37240;50.104;20.010;2024-02-21T14:24:38;15.25;;;4.53;;
51174;SDS011;37240;50.104;20.010;2024-02-21T14:29:39;25.08;;;5.15;;
51174;SDS011;37240;50.104;20.010;2024-02-21T14:34:39;17.40;;;4.47;;
51174;SDS011;37240;50.104;20.010;2024-02-21T14:39:40;11.25;;;4.60;;
51174;SDS011;37240;50.104;20.010;2024-02-21T14:44:41;16.85;;;4.47;;
51174;SDS011;37240;50.104;20.010;2024-02-21T14:49:41;23.25;;;5.47;;
51174;SDS011;37240;50.104;20.010;2024-02-21T14:54:42;19.55;;;5.30;;
51174;SDS011;37240;50.104;20.010;2024-02-21T14:59:43;9.68;;;4.30;;
51174;SDS011;37240;50.104;20.010;2024-02-21T15:04:43;17.98;;;4.18;;
51174;SDS011;37240;50.104;20.010;2024-02-21T15:09:44;10.30;;;3.83;;
51174;SDS011;37240;50.104;20.010;2024-02-21T15:14:44;13.10;;;5.13;;
51174;SDS011;37240;50.104;20.010;2024-02-21T15:19:45;9.70;;;3.67;;
51174;SDS011;37240;50.104;20.010;2024-02-21T15:24:45;9.95;;;4.18;;
51174;SDS011;37240;50.104;20.010;2024-02-21T15:29:51;17.15;;;5.05;;
51174;SDS011;37240;50.104;20.010;2024-02-21T15:34:52;16.60;;;4.60;;
51174;SDS011;37240;50.104;20.010;2024-02-21T15:39:53;19.52;;;5.68;;
51174;SDS011;37240;50.104;20.010;2024-02-21T15:44:53;15.18;;;5.28;;
51174;SDS011;37240;50.104;20.010;2024-02-21T15:50:05;22.27;;;6.82;;
51174;SDS011;37240;50.104;20.010;2024-02-21T15:55:06;24.63;;;6.57;;
51174;SDS011;37240;50.104;20.010;2024-02-21T16:00:07;21.10;;;7.05;;
51174;SDS011;37240;50.104;20.010;2024-02-21T16:05:08;21.58;;;5.82;;
51174;SDS011;37240;50.104;20.010;2024-02-21T16:10:09;15.45;;;6.80;;
51174;SDS011;37240;50.104;20.010;2024-02-21T16:15:09;18.05;;;7.80;;
51174;SDS011;37240;50.104;20.010;2024-02-21T16:20:10;16.02;;;5.93;;
51174;SDS011;37240;50.104;20.010;2024-02-21T16:25:12;15.20;;;6.43;;
51174;SDS011;37240;50.104;20.010;2024-02-21T16:30:13;22.95;;;6.38;;
51174;SDS011;37240;50.104;20.010;2024-02-21T16:35:14;16.23;;;5.90;;
51174;SDS011;37240;50.104;20.010;2024-02-21T16:40:14;18.90;;;6.18;;
51174;SDS011;37240;50.104;20.010;2024-02-21T16:45:15;23.73;;;7.07;;
51174;SDS011;37240;50.104;20.010;2024-02-21T16:50:16;19.00;;;6.18;;
51174;SDS011;37240;50.104;20.010;2024-02-21T16:55:17;14.25;;;5.28;;
51174;SDS011;37240;50.104;20.010;2024-02-21T17:00:18;17.38;;;5.72;;
51174;SDS011;37240;50.104;20.010;2024-02-21T17:05:19;17.77;;;6.53;;
51174;SDS011;37240;50.104;20.010;2024-02-21T17:10:19;79.68;;;31.92;;
51174;SDS011;37240;50.104;20.010;2024-02-21T17:15:20;45.88;;;18.67;;
51174;SDS011;37240;50.104;20.010;2024-02-21T17:20:20;22.25;;;8.77;;
51174;SDS011;37240;50.104;20.010;2024-02-21T17:25:21;15.48;;;6.55;;
51174;SDS011;37240;50.104;20.010;2024-02-21T17:30:21;11.82;;;5.22;;
51174;SDS011;37240;50.104;20.010;2024-02-21T17:35:22;53.42;;;20.10;;
51174;SDS011;37240;50.104;20.010;2024-02-21T17:40:22;32.22;;;13.05;;
51174;SDS011;37240;50.104;20.010;2024-02-21T17:45:23;20.52;;;8.63;;
51174;SDS011;37240;50.104;20.010;2024-02-21T17:50:24;26.02;;;7.75;;
51174;SDS011;37240;50.104;20.010;2024-02-21T17:55:24;23.58;;;7.53;;
51174;SDS011;37240;50.104;20.010;2024-02-21T18:00:25;17.42;;;8.18;;
51174;SDS011;37240;50.104;20.010;2024-02-21T18:05:26;27.23;;;10.82;;
51174;SDS011;37240;50.104;20.010;2024-02-21T18:10:26;24.88;;;9.38;;
51174;SDS011;37240;50.104;20.010;2024-02-21T18:15:27;16.08;;;7.63;;
51174;SDS011;37240;50.104;20.010;2024-02-21T18:20:28;21.45;;;7.85;;
51174;SDS011;37240;50.104;20.010;2024-02-21T18:25:28;23.48;;;8.80;;
51174;SDS011;37240;50.104;20.010;2024-02-21T18:30:29;16.38;;;6.97;;
51174;SDS011;37240;50.104;20.010;2024-02-21T18:35:29;15.93;;;6.43;;
51174;SDS011;37240;50.104;20.010;2024-02-21T18:40:30;16.77;;;7.25;;
51174;SDS011;37240;50.104;20.010;2024-02-21T18:45:30;36.53;;;14.60;;
51174;SDS011;37240;50.104;20.010;2024-02-21T18:50:31;26.38;;;9.13;;
51174;SDS011;37240;50.104;20.010;2024-02-21T18:55:31;17.88;;;8.23;;
51174;SDS011;37240;50.104;20.010;2024-02-21T19:00:32;17.27;;;7.10;;
51174;SDS011;37240;50.104;20.010;2024-02-21T19:05:33;20.40;;;7.10;;
51174;SDS011;37240;50.104;20.010;2024-02-21T19:10:33;20.92;;;7.40;;
51174;SDS011;37240;50.104;20.010;2024-02-21T19:15:34;17.95;;;7.05;;
51174;SDS011;37240;50.104;20.010;2024-02-21T19:20:35;18.42;;;7.45;;
51174;SDS011;37240;50.104;20.010;2024-02-21T19:25:35;22.52;;;7.28;;
51174;SDS011;37240;50.104;20.010;2024-02-21T19:30:36;22.55;;;7.93;;
51174;SDS011;37240;50.104;20.010;2024-02-21T19:35:37;16.08;;;7.10;;
51174;SDS011;37240;50.104;20.010;2024-02-21T19:40:37;16.15;;;7.18;;
51174;SDS011;37240;50.104;20.010;2024-02-21T19:45:38;16.00;;;7.00;;
51174;SDS011;37240;50.104;20.010;2024-02-21T19:50:42;20.33;;;7.82;;
51174;SDS011;37240;50.104;20.010;2024-02-21T19:55:42;24.20;;;7.57;;
51174;SDS011;37240;50.104;20.010;2024-02-21T20:00:43;26.67;;;9.48;;
51174;SDS011;37240;50.104;20.010;2024-02-21T20:05:43;26.88;;;8.98;;
51174;SDS011;37240;50.104;20.010;2024-02-21T20:10:44;28.05;;;9.20;;
51174;SDS011;37240;50.104;20.010;2024-02-21T20:15:45;20.02;;;7.53;;
51174;SDS011;37240;50.104;20.010;2024-02-21T20:20:45;23.92;;;8.75;;
51174;SDS011;37240;50.104;20.010;2024-02-21T20:25:46;22.95;;;9.38;;
51174;SDS011;37240;50.104;20.010;2024-02-21T20:30:46;38.45;;;13.60;;
51174;SDS011;37240;50.104;20.010;2024-02-21T20:35:47;42.83;;;14.90;;
51174;SDS011;37240;50.104;20.010;2024-02-21T20:40:47;36.92;;;12.50;;
51174;SDS011;37240;50.104;20.010;2024-02-21T20:45:48;42.60;;;11.52;;
51174;SDS011;37240;50.104;20.010;2024-02-21T20:50:49;24.85;;;10.20;;
51174;SDS011;37240;50.104;20.010;2024-02-21T20:55:49;29.15;;;11.40;;
51174;SDS011;37240;50.104;20.010;2024-02-21T21:00:50;24.50;;;10.10;;
51174;SDS011;37240;50.104;20.010;2024-02-21T21:05:50;28.20;;;9.80;;
51174;SDS011;37240;50.104;20.010;2024-02-21T21:10:51;27.98;;;11.13;;
51174;SDS011;37240;50.104;20.010;2024-02-21T21:15:51;27.00;;;10.68;;
51174;SDS011;37240;50.104;20.010;2024-02-21T21:20:52;26.33;;;10.68;;
51174;SDS011;37240;50.104;20.010;2024-02-21T21:25:52;26.70;;;11.00;;
51174;SDS011;37240;50.104;20.010;2024-02-21T21:30:53;24.48;;;10.07;;
51174;SDS011;37240;50.104;20.010;2024-02-21T21:35:53;28.63;;;10.88;;
51174;SDS011;37240;50.104;20.010;2024-02-21T21:40:54;33.58;;;12.05;;
51174;SDS011;37240;50.104;20.010;2024-02-21T21:45:54;27.48;;;11.15;;
51174;SDS011;37240;50.104;20.010;2024-02-21T21:50:55;31.92;;;12.77;;
51174;SDS011;37240;50.104;20.010;2024-02-21T21:55:56;34.13;;;13.10;;
51174;SDS011;37240;50.104;20.010;2024-02-21T22:00:56;47.72;;;14.88;;
51174;SDS011;37240;50.104;20.010;2024-02-21T22:05:57;43.80;;;17.10;;
51174;SDS011;37240;50.104;20.010;2024-02-21T22:10:57;42.60;;;15.38;;
51174;SDS011;37240;50.104;20.010;2024-02-21T22:15:58;61.92;;;19.98;;
51174;SDS011;37240;50.104;20.010;2024-02-21T22:20:58;57.22;;;18.00;;
51174;SDS011;37240;50.104;20.010;2024-02-21T22:25:59;56.72;;;17.70;;
51174;SDS011;37240;50.104;20.010;2024-02-21T22:31:00;39.22;;;14.25;;
51174;SDS011;37240;50.104;20.010;2024-02-21T22:36:00;43.20;;;15.57;;
51174;SDS011;37240;50.104;20.010;2024-02-21T22:41:10;38.38;;;12.88;;
51174;SDS011;37240;50.104;20.010;2024-02-21T22:46:10;38.03;;;15.02;;
51174;SDS011;37240;50.104;20.010;2024-02-21T22:51:11;38.30;;;13.00;;
51174;SDS011;37240;50.104;20.010;2024-02-21T22:56:14;34.05;;;11.32;;
51174;SDS011;37240;50.104;20.010;2024-02-21T23:01:26;29.52;;;11.35;;
51174;SDS011;37240;50.104;20.010;2024-02-21T23:06:26;28.88;;;11.15;;
51174;SDS011;37240;50.104;20.010;2024-02-21T23:11:27;28.15;;;10.45;;
51174;SDS011;37240;50.104;20.010;2024-02-21T23:16:27;40.03;;;12.57;;
51174;SDS011;37240;50.104;20.010;2024-02-21T23:21:28;43.30;;;15.25;;
51174;SDS011;37240;50.104;20.010;2024-02-21T23:26:28;34.15;;;13.85;;
51174;SDS011;37240;50.104;20.010;2024-02-21T23:31:29;40.17;;;16.05;;
51174;SDS011;37240;50.104;20.010;2024-02-21T23:36:30;36.60;;;15.52;;
51174;SDS011;37240;50.104;20.010;2024-02-21T23:41:31;42.05;;;15.88;;
51174;SDS011;37240;50.104;20.010;2024-02-21T23:46:31;46.55;;;17.23;;
51174;SDS011;37240;50.104;20.010;2024-02-21T23:51:32;54.25;;;19.67;;
51174;SDS011;37240;50.104;20.010;2024-02-21T23:56:32;46.90;;;18.88;;
